Time;durP1;ratioP1;P1;durP2;ratioP2;P2;SDS_P1;SDS_P2;PMS_P1;PMS_P2;Temp;Humidity;BMP_temperature;BMP_pressure;BME280_temperature;BME280_humidity;BME280_pressure;Samples;Min_cycle;Max_cycle;Signal;HPM_P1;HPM_P2
2021/07/12 00:02:08;;;;;;;11.88;9.65;;;26.10;66.60;;;;;;4902471;29;20032;-78
2021/07/12 00:04:34;;;;;;;13.55;10.25;;;26.00;66.70;;;;;;4919491;29;20466;-79
2021/07/12 00:06:59;;;;;;;11.10;9.65;;;26.00;67.00;;;;;;4919415;29;20031;-78
2021/07/12 00:09:25;;;;;;;14.25;9.88;;;25.90;67.10;;;;;;4919665;29;20036;-78
2021/07/12 00:11:51;;;;;;;14.25;10.55;;;25.90;67.40;;;;;;4919984;29;20080;-78
2021/07/12 00:14:16;;;;;;;11.93;10.63;;;25.90;67.70;;;;;;4919367;29;20494;-78
2021/07/12 00:16:42;;;;;;;14.30;10.55;;;25.80;67.80;;;;;;4919838;29;20056;-78
2021/07/12 00:19:08;;;;;;;12.27;11.05;;;25.80;68.00;;;;;;4919245;29;20108;-78
2021/07/12 00:21:34;;;;;;;13.05;10.63;;;25.70;68.10;;;;;;4919363;29;20414;-78
2021/07/12 00:23:59;;;;;;;15.65;11.07;;;25.70;68.30;;;;;;4919410;29;20028;-78
2021/07/12 00:26:25;;;;;;;14.35;10.80;;;25.70;68.50;;;;;;4902025;29;20036;-78
2021/07/12 00:28:51;;;;;;;14.27;11.23;;;25.60;68.60;;;;;;4918912;29;20048;-78
2021/07/12 00:31:17;;;;;;;15.32;11.10;;;25.60;68.80;;;;;;4919106;29;20058;-78
2021/07/12 00:33:43;;;;;;;13.23;10.38;;;25.60;68.90;;;;;;4918985;29;20102;-78
2021/07/12 00:36:10;;;;;;;13.45;11.52;;;25.50;69.00;;;;;;4919216;29;20028;-78
2021/07/12 00:38:36;;;;;;;17.85;11.57;;;25.50;69.20;;;;;;4918993;29;20216;-77
2021/07/12 00:41:03;;;;;;;16.08;12.20;;;25.50;69.40;;;;;;4919134;29;20025;-77
2021/07/12 00:43:30;;;;;;;15.57;10.95;;;25.40;69.50;;;;;;4919097;29;20029;-77
2021/07/12 00:45:55;;;;;;;14.82;11.18;;;25.40;69.50;;;;;;4919091;29;20383;-77
2021/07/12 00:48:21;;;;;;;15.80;11.05;;;25.40;69.60;;;;;;4918898;29;20028;-78
2021/07/12 00:50:47;;;;;;;14.98;12.30;;;25.30;69.60;;;;;;4918657;29;20035;-78
2021/07/12 00:53:14;;;;;;;14.40;11.45;;;25.40;69.70;;;;;;4918883;29;20027;-78
2021/07/12 00:55:43;;;;;;;16.60;12.52;;;25.30;69.70;;;;;;4918627;29;20048;-77
2021/07/12 00:58:14;;;;;;;17.23;12.65;;;25.30;69.90;;;;;;4918594;29;20056;-78
2021/07/12 01:00:41;;;;;;;15.30;12.63;;;25.30;70.00;;;;;;4918696;29;20433;-78
2021/07/12 01:03:08;;;;;;;14.05;12.75;;;25.20;70.10;;;;;;4918769;29;20036;-78
2021/07/12 01:05:35;;;;;;;14.35;11.38;;;25.20;70.30;;;;;;4918492;29;20105;-78
2021/07/12 01:08:01;;;;;;;15.85;12.10;;;25.20;70.50;;;;;;4918628;29;20375;-78
2021/07/12 01:10:28;;;;;;;13.05;11.75;;;25.10;70.60;;;;;;4918626;29;20040;-78
2021/07/12 01:13:15;;;;;;;15.45;12.48;;;25.10;70.90;;;;;;4918204;29;20055;-78
2021/07/12 01:15:58;;;;;;;15.10;12.75;;;25.10;71.10;;;;;;4918037;29;20064;-78
2021/07/12 01:18:32;;;;;;;16.75;12.82;;;25.00;71.30;;;;;;4900638;29;20115;-78
2021/07/12 01:21:19;;;;;;;14.48;13.00;;;25.00;71.40;;;;;;4918083;29;20356;-78
2021/07/12 01:24:08;;;;;;;16.85;13.13;;;25.00;71.60;;;;;;4918010;29;20119;-77
2021/07/12 01:26:52;;;;;;;14.35;12.85;;;24.90;71.60;;;;;;4917747;29;20020;-77
2021/07/12 01:29:29;;;;;;;20.20;13.55;;;24.90;71.70;;;;;;4900591;29;20059;-77
2021/07/12 01:32:21;;;;;;;17.13;13.63;;;24.90;71.80;;;;;;4917440;29;20027;-78
2021/07/12 01:34:54;;;;;;;;;;;24.90;71.90;;;;;;4917487;29;20056;-78
2021/07/12 01:37:41;;;;;;;17.15;15.57;;;24.80;71.50;;;;;;4931473;29;20010;-78
2021/07/12 01:40:13;;;;;;;18.48;16.38;;;24.80;71.90;;;;;;4900132;29;20115;-78
2021/07/12 01:42:53;;;;;;;20.63;15.32;;;24.70;72.10;;;;;;4917758;29;20028;-78
2021/07/12 01:45:21;;;;;;;17.25;15.45;;;24.70;73.10;;;;;;4917442;29;20115;-78
2021/07/12 01:48:00;;;;;;;19.02;15.45;;;24.60;72.60;;;;;;4917262;29;20031;-77
2021/07/12 01:50:34;;;;;;;18.30;15.55;;;24.60;72.90;;;;;;4916932;29;20028;-78
2021/07/12 01:53:14;;;;;;;21.88;15.73;;;24.60;73.10;;;;;;4917214;29;20031;-78
2021/07/12 01:55:48;;;;;;;16.65;14.80;;;24.50;73.20;;;;;;4917207;29;20674;-78
2021/07/12 01:58:25;;;;;;;17.67;15.87;;;24.50;73.40;;;;;;4900173;29;20028;-78
2021/07/12 02:00:53;;;;;;;29.75;16.17;;;24.50;73.60;;;;;;4917489;29;20156;-78
2021/07/12 02:03:21;;;;;;;21.92;16.27;;;24.50;73.60;;;;;;4917452;29;20115;-78
2021/07/12 02:05:50;;;;;;;21.38;15.80;;;24.40;73.70;;;;;;4917329;29;20051;-78
2021/07/12 02:08:21;;;;;;;20.20;15.90;;;24.40;73.90;;;;;;4917429;29;20420;-78
2021/07/12 02:10:50;;;;;;;22.33;16.15;;;24.30;74.00;;;;;;4917532;29;20028;-78
2021/07/12 02:13:17;;;;;;;19.67;16.88;;;24.40;74.10;;;;;;4917443;29;20111;-78
2021/07/12 02:15:48;;;;;;;22.13;17.25;;;24.30;74.10;;;;;;4917418;29;20059;-78
2021/07/12 02:18:16;;;;;;;21.43;17.43;;;24.30;74.30;;;;;;4916494;29;20538;-77
2021/07/12 02:20:46;;;;;;;22.98;16.77;;;24.30;74.30;;;;;;4917243;29;20726;-78
2021/07/12 02:23:15;;;;;;;22.05;16.98;;;24.30;74.40;;;;;;4917338;29;20028;-77
2021/07/12 02:25:42;;;;;;;22.08;18.50;;;24.30;74.50;;;;;;4916959;29;20028;-77
2021/07/12 02:28:10;;;;;;;25.63;18.25;;;24.30;74.60;;;;;;4899153;29;20080;-77
2021/07/12 02:30:38;;;;;;;21.17;17.45;;;24.30;74.60;;;;;;4916464;29;20075;-77
2021/07/12 02:33:05;;;;;;;21.08;16.95;;;24.30;74.70;;;;;;4899790;29;20051;-77
2021/07/12 02:35:32;;;;;;;22.35;16.80;;;24.40;74.60;;;;;;4916403;29;20471;-77
2021/07/12 02:37:58;;;;;;;20.75;16.02;;;24.40;74.50;;;;;;4916464;29;20032;-77
2021/07/12 02:40:24;;;;;;;17.90;15.70;;;24.60;74.40;;;;;;4916409;29;20038;-77
2021/07/12 02:42:52;;;;;;;20.17;16.45;;;24.90;74.10;;;;;;4916348;29;20431;-77
2021/07/12 02:45:19;;;;;;;17.98;16.17;;;25.30;73.60;;;;;;4916506;29;20031;-77
2021/07/12 02:47:46;;;;;;;20.55;16.67;;;25.70;72.80;;;;;;4916554;29;20062;-77
2021/07/12 02:50:12;;;;;;;22.40;15.60;;;26.20;71.80;;;;;;4916489;29;20513;-77
2021/07/12 02:53:17;;;;;;;19.60;15.10;;;26.60;70.70;;;;;;4916202;29;20431;-77
2021/07/12 02:55:43;;;;;;;15.90;14.23;;;27.00;69.60;;;;;;4910419;29;20048;-77
2021/07/12 02:58:09;;;;;;;17.50;14.55;;;27.50;68.90;;;;;;4916447;29;20032;-77
2021/07/12 03:00:35;;;;;;;21.88;14.63;;;27.90;67.80;;;;;;4916177;29;20024;-77
2021/07/12 03:03:00;;;;;;;15.93;14.00;;;28.50;67.00;;;;;;4916538;29;20039;-78
2021/07/12 03:05:26;;;;;;;16.40;13.95;;;29.00;66.00;;;;;;4916445;29;20036;-78
2021/07/12 03:08:11;;;;;;;16.63;14.25;;;29.60;64.90;;;;;;4917570;29;20028;-79
2021/07/12 03:10:49;;;;;;;17.17;13.85;;;30.10;63.80;;;;;;4917768;29;20083;-79
2021/07/12 03:13:24;;;;;;;15.25;13.60;;;30.80;62.40;;;;;;4917437;29;20378;-78
2021/07/12 03:15:52;;;;;;;19.30;12.93;;;31.30;61.40;;;;;;4916874;29;20032;-78
2021/07/12 03:18:31;;;;;;;16.23;12.90;;;31.80;60.50;;;;;;4916843;29;20024;-78
2021/07/12 03:20:59;;;;;;;17.15;13.57;;;32.40;59.40;;;;;;4916665;29;20024;-80
2021/07/12 03:23:27;;;;;;;15.85;12.63;;;32.90;58.50;;;;;;4916860;29;20030;-79
2021/07/12 03:25:57;;;;;;;16.23;12.35;;;33.50;57.60;;;;;;4916937;29;20078;-79
2021/07/12 03:28:24;;;;;;;15.48;13.25;;;34.00;56.60;;;;;;4916849;29;20047;-79
2021/07/12 03:30:51;;;;;;;16.42;11.18;;;34.40;55.60;;;;;;4916924;29;20545;-80
2021/07/12 03:33:22;;;;;;;14.25;11.57;;;34.90;54.70;;;;;;4916408;29;20028;-79
2021/07/12 03:35:49;;;;;;;12.77;10.45;;;35.30;53.50;;;;;;4915983;29;20024;-79
2021/07/12 03:38:18;;;;;;;15.00;10.77;;;35.50;53.00;;;;;;4916250;29;20084;-80
2021/07/12 03:40:44;;;;;;;13.52;9.93;;;35.60;52.30;;;;;;4918247;29;20024;-80
2021/07/12 03:43:12;;;;;;;10.35;9.35;;;35.60;52.00;;;;;;4919744;29;20048;-79
2021/07/12 03:45:40;;;;;;;21.83;10.35;;;35.40;51.40;;;;;;4919217;29;20356;-80
2021/07/12 03:48:09;;;;;;;15.60;9.25;;;35.60;51.20;;;;;;4919348;29;20024;-79
2021/07/12 03:50:35;;;;;;;12.32;9.40;;;35.80;50.80;;;;;;4902176;29;20425;-80
2021/07/12 03:53:03;;;;;;;10.63;9.23;;;36.30;50.40;;;;;;4919399;29;20034;-79
2021/07/12 03:55:30;;;;;;;11.90;9.60;;;36.90;49.70;;;;;;4919539;29;20494;-80
2021/07/12 03:57:58;;;;;;;11.25;9.70;;;37.50;48.90;;;;;;4919664;29;20064;-80
2021/07/12 04:00:26;;;;;;;11.52;9.02;;;38.00;47.90;;;;;;4919334;29;20076;-81
2021/07/12 04:02:52;;;;;;;15.10;9.57;;;38.40;47.20;;;;;;4919258;29;20029;-79
2021/07/12 04:05:24;;;;;;;14.07;9.95;;;38.70;46.60;;;;;;4919269;29;20056;-79
2021/07/12 04:07:50;;;;;;;10.88;9.30;;;39.00;46.40;;;;;;4919056;29;20390;-79
2021/07/12 04:10:18;;;;;;;14.88;9.48;;;39.30;45.80;;;;;;4918492;29;20028;-79
2021/07/12 04:12:44;;;;;;;11.68;8.82;;;39.70;45.20;;;;;;4918452;29;20024;-79
2021/07/12 04:15:12;;;;;;;13.90;10.18;;;39.70;44.70;;;;;;4918125;29;20070;-79
2021/07/12 04:17:39;;;;;;;11.63;9.27;;;39.10;44.50;;;;;;4918450;29;20491;-79
2021/07/12 04:20:06;;;;;;;13.45;10.38;;;38.20;45.00;;;;;;4918120;29;20032;-79
2021/07/12 04:22:32;;;;;;;13.63;9.73;;;37.10;45.80;;;;;;4917953;29;20024;-79
2021/07/12 04:24:58;;;;;;;12.30;11.05;;;35.90;47.10;;;;;;4917940;29;20020;-79
2021/07/12 04:27:24;;;;;;;16.15;10.93;;;34.80;48.70;;;;;;4918216;29;20047;-80
2021/07/12 04:29:50;;;;;;;13.20;10.80;;;33.90;50.10;;;;;;4918505;29;20028;-79
2021/07/12 04:32:15;;;;;;;11.68;10.40;;;33.30;51.40;;;;;;4918427;29;20032;-79
2021/07/12 04:34:41;;;;;;;11.85;10.60;;;32.90;52.40;;;;;;4918373;29;20024;-78
2021/07/12 04:37:07;;;;;;;17.25;13.82;;;32.70;53.20;;;;;;4918471;29;20024;-78
2021/07/12 04:39:34;;;;;;;19.27;11.93;;;32.40;53.80;;;;;;4918459;29;20028;-79
2021/07/12 04:42:00;;;;;;;18.30;16.30;;;32.20;54.50;;;;;;4900984;29;20021;-78
2021/07/12 04:44:25;;;;;;;19.02;11.98;;;32.10;55.00;;;;;;4917974;29;20542;-79
2021/07/12 04:46:51;;;;;;;19.55;12.70;;;32.10;55.20;;;;;;4918149;29;20107;-79
2021/07/12 04:49:17;;;;;;;13.32;11.25;;;32.30;55.50;;;;;;4917334;29;20147;-80
2021/07/12 04:51:44;;;;;;;12.23;10.80;;;32.60;55.50;;;;;;4917051;29;20020;-79
2021/07/12 04:54:10;;;;;;;13.82;11.10;;;33.40;55.30;;;;;;4917932;29;20416;-79
2021/07/12 04:56:36;;;;;;;15.15;11.48;;;34.40;54.30;;;;;;4917969;29;20084;-79
2021/07/12 04:59:07;;;;;;;12.80;10.60;;;35.70;52.80;;;;;;4917755;29;20067;-78
2021/07/12 05:01:33;;;;;;;12.30;11.00;;;37.00;51.00;;;;;;4917991;29;20068;-79
2021/07/12 05:04:01;;;;;;;12.70;10.23;;;38.30;49.20;;;;;;4917687;29;20020;-78
2021/07/12 05:06:27;;;;;;;13.70;10.60;;;39.40;48.20;;;;;;4917735;29;20040;-78
2021/07/12 05:08:53;;;;;;;14.45;10.15;;;40.40;46.20;;;;;;4917697;29;20042;-79
2021/07/12 05:11:19;;;;;;;11.55;9.43;;;41.20;44.90;;;;;;4900061;29;20135;-79
2021/07/12 05:13:45;;;;;;;11.15;9.95;;;41.70;44.00;;;;;;4917176;29;20036;-79
2021/07/12 05:16:11;;;;;;;17.02;12.73;;;42.10;43.30;;;;;;4917568;29;20024;-79
2021/07/12 05:18:38;;;;;;;12.27;11.13;;;42.60;42.80;;;;;;4916966;29;20043;-80
2021/07/12 05:21:04;;;;;;;12.18;10.23;;;43.00;42.10;;;;;;4916970;29;20533;-79
2021/07/12 05:23:30;;;;;;;14.10;10.10;;;43.30;41.70;;;;;;4916550;29;20037;-83
2021/07/12 05:25:56;;;;;;;12.43;11.18;;;43.40;41.30;;;;;;4915563;29;20391;-82
2021/07/12 05:28:22;;;;;;;15.88;11.18;;;43.30;41.10;;;;;;4916190;29;20025;-81
2021/07/12 05:30:48;;;;;;;13.35;10.43;;;43.40;41.10;;;;;;4915687;29;20534;-82
2021/07/12 05:33:14;;;;;;;16.40;10.75;;;43.70;40.80;;;;;;4915579;29;20111;-80
2021/07/12 05:35:40;;;;;;;13.10;11.68;;;44.00;40.40;;;;;;4922611;29;20016;-80
2021/07/12 05:38:05;;;;;;;12.70;10.45;;;44.20;39.80;;;;;;4924551;29;20095;-81
2021/07/12 05:40:31;;;;;;;12.27;11.07;;;44.00;39.60;;;;;;4924545;29;20020;-80
2021/07/12 05:42:57;;;;;;;14.30;12.25;;;43.80;39.60;;;;;;4923323;29;20027;-80
2021/07/12 05:45:23;;;;;;;12.15;11.13;;;43.30;39.90;;;;;;4928041;29;20027;-81
2021/07/12 05:47:49;;;;;;;13.77;12.32;;;42.80;40.10;;;;;;4934534;29;20032;-80
2021/07/12 05:50:15;;;;;;;13.75;12.35;;;42.30;40.40;;;;;;4917321;29;20028;-80
2021/07/12 05:52:41;;;;;;;25.23;12.05;;;42.30;40.90;;;;;;4934575;29;20079;-78
2021/07/12 05:55:08;;;;;;;14.18;11.20;;;42.50;41.80;;;;;;4934402;29;20063;-80
2021/07/12 05:57:34;;;;;;;17.15;11.73;;;42.80;40.90;;;;;;4934989;29;20115;-79
2021/07/12 05:59:59;;;;;;;13.25;12.05;;;42.60;40.40;;;;;;4935437;29;20103;-79
2021/07/12 06:02:25;;;;;;;13.55;12.13;;;41.70;40.90;;;;;;4935509;29;20454;-80
2021/07/12 06:04:51;;;;;;;15.25;11.80;;;40.80;41.50;;;;;;4935491;29;20035;-78
2021/07/12 06:07:17;;;;;;;16.17;11.82;;;39.90;42.50;;;;;;4935380;29;20030;-79
2021/07/12 06:09:42;;;;;;;15.30;12.98;;;39.30;43.50;;;;;;4935442;29;20058;-80
2021/07/12 06:12:08;;;;;;;17.05;11.57;;;38.70;44.40;;;;;;4935256;29;20419;-78
2021/07/12 06:14:34;;;;;;;13.52;12.07;;;38.50;45.10;;;;;;4935039;29;20039;-79
2021/07/12 06:17:00;;;;;;;15.40;11.80;;;38.50;44.80;;;;;;4935404;29;20427;-78
2021/07/12 06:19:26;;;;;;;15.75;12.63;;;37.80;45.50;;;;;;4935634;29;20059;-80
2021/07/12 06:21:51;;;;;;;13.45;12.23;;;36.90;46.60;;;;;;4935422;29;20455;-81
2021/07/12 06:24:17;;;;;;;17.77;15.75;;;36.20;47.80;;;;;;4935563;29;20024;-80
2021/07/12 06:26:43;;;;;;;15.95;12.93;;;35.90;48.70;;;;;;4950365;29;20486;-79
2021/07/12 06:29:08;;;;;;;15.02;13.35;;;35.80;49.30;;;;;;4935450;29;20051;-81
2021/07/12 06:31:36;;;;;;;14.75;13.15;;;36.00;49.60;;;;;;4935231;29;20032;-80
2021/07/12 06:34:02;;;;;;;14.60;12.95;;;36.20;49.30;;;;;;4934802;29;20026;-78
2021/07/12 06:36:28;;;;;;;14.40;12.85;;;36.40;49.30;;;;;;4933779;29;20027;-79
2021/07/12 06:38:54;;;;;;;18.27;13.10;;;36.30;49.10;;;;;;4933720;29;20050;-77
2021/07/12 06:41:19;;;;;;;18.90;13.52;;;36.00;49.10;;;;;;4933661;29;20027;-77
2021/07/12 06:43:45;;;;;;;14.93;13.13;;;35.60;49.80;;;;;;4948849;29;20137;-77
2021/07/12 06:46:11;;;;;;;15.05;13.65;;;35.50;50.40;;;;;;4933810;29;20051;-77
2021/07/12 06:48:37;;;;;;;17.35;13.95;;;35.10;50.50;;;;;;4934196;29;20039;-78
2021/07/12 06:51:02;;;;;;;17.52;14.05;;;34.80;51.20;;;;;;4933724;29;20126;-77
2021/07/12 06:53:28;;;;;;;20.90;15.23;;;34.60;51.70;;;;;;4933613;29;20091;-76
2021/07/12 06:55:54;;;;;;;19.00;15.07;;;34.20;52.20;;;;;;4933407;29;20040;-75
2021/07/12 06:58:20;;;;;;;19.13;15.20;;;33.80;53.20;;;;;;4933758;29;20023;-74
2021/07/12 07:00:45;;;;;;;20.40;14.98;;;33.50;53.60;;;;;;4933679;29;20034;-77
2021/07/12 07:03:11;;;;;;;24.63;14.95;;;33.20;54.30;;;;;;4948262;29;20159;-76
2021/07/12 07:05:37;;;;;;;16.20;14.10;;;33.20;54.80;;;;;;4933514;29;20028;-76
2021/07/12 07:08:03;;;;;;;17.65;15.75;;;33.20;54.90;;;;;;4933632;29;20075;-75
2021/07/12 07:10:29;;;;;;;21.15;17.27;;;33.20;55.00;;;;;;4933744;29;20060;-76
2021/07/12 07:12:55;;;;;;;23.20;14.77;;;33.20;55.10;;;;;;4916548;29;20446;-73
2021/07/12 07:15:21;;;;;;;18.88;14.55;;;33.20;55.00;;;;;;4917713;29;20537;-76
2021/07/12 07:17:46;;;;;;;19.15;13.80;;;33.20;54.90;;;;;;4937015;29;20040;-76
2021/07/12 07:20:13;;;;;;;21.00;15.15;;;33.10;54.80;;;;;;4936861;29;20374;-80
2021/07/12 07:22:38;;;;;;;23.42;17.08;;;33.10;55.40;;;;;;4936722;29;20026;-80
2021/07/12 07:25:06;;;;;;;24.33;16.48;;;33.50;56.30;;;;;;4937077;29;20032;-78
2021/07/12 07:27:32;;;;;;;15.88;14.18;;;34.20;54.90;;;;;;4936755;29;20099;-79
2021/07/12 07:30:01;;;;;;;17.90;14.23;;;35.20;53.80;;;;;;4936988;29;20035;-79
2021/07/12 07:32:26;;;;;;;16.92;14.73;;;35.80;52.40;;;;;;4936426;29;20114;-78
2021/07/12 07:34:52;;;;;;;15.98;14.38;;;36.00;51.30;;;;;;4936365;29;20027;-79
2021/07/12 07:37:18;;;;;;;17.38;13.65;;;35.70;51.20;;;;;;4936749;29;20038;-76
2021/07/12 07:39:43;;;;;;;24.98;13.50;;;35.80;51.90;;;;;;4936758;29;20102;-77
2021/07/12 07:42:09;;;;;;;15.52;13.93;;;36.30;51.60;;;;;;4927497;29;20039;-77
2021/07/12 07:44:35;;;;;;;17.42;13.20;;;36.50;51.20;;;;;;4924781;29;20403;-79
2021/07/12 07:47:00;;;;;;;15.90;13.43;;;36.40;50.60;;;;;;4925879;29;20028;-77
2021/07/12 07:49:27;;;;;;;16.90;13.30;;;36.30;50.50;;;;;;4925554;29;20127;-77
2021/07/12 07:51:53;;;;;;;13.88;11.95;;;36.00;50.30;;;;;;4924822;29;20028;-77
2021/07/12 07:54:18;;;;;;;16.40;12.52;;;35.70;50.10;;;;;;4925533;29;20441;-78
2021/07/12 07:56:45;;;;;;;14.40;12.50;;;35.40;50.60;;;;;;4925066;29;20032;-77
2021/07/12 07:59:11;;;;;;;17.40;12.77;;;35.20;51.00;;;;;;4924671;29;20046;-77
2021/07/12 08:01:36;;;;;;;13.35;12.05;;;35.20;51.50;;;;;;4925724;29;20449;-77
2021/07/12 08:04:02;;;;;;;15.50;13.50;;;35.80;51.70;;;;;;4907463;29;20024;-76
2021/07/12 08:06:28;;;;;;;20.33;11.65;;;36.50;51.10;;;;;;4925192;29;20103;-75
2021/07/12 08:08:54;;;;;;;14.70;11.63;;;37.00;50.10;;;;;;4909435;29;20075;-76
2021/07/12 08:11:20;;;;;;;12.13;10.93;;;37.30;49.30;;;;;;4924800;29;20020;-76
2021/07/12 08:13:46;;;;;;;11.80;10.80;;;37.40;49.70;;;;;;4925340;29;20459;-75
2021/07/12 08:16:12;;;;;;;13.00;10.80;;;37.50;48.80;;;;;;4926440;29;20110;-76
2021/07/12 08:18:38;;;;;;;12.57;10.63;;;37.40;48.70;;;;;;4924215;29;20079;-75
2021/07/12 08:21:04;;;;;;;28.80;18.40;;;37.30;48.80;;;;;;4925564;29;20125;-75
2021/07/12 08:23:30;;;;;;;18.63;11.32;;;37.50;49.00;;;;;;4908888;29;20066;-74
2021/07/12 08:25:56;;;;;;;13.73;11.30;;;37.60;48.60;;;;;;4923731;29;20072;-76
2021/07/12 08:28:25;;;;;;;12.38;10.32;;;37.50;48.50;;;;;;4920985;29;20035;-75
2021/07/12 08:30:52;;;;;;;13.75;10.30;;;37.30;48.20;;;;;;4916879;29;20032;-76
2021/07/12 08:33:20;;;;;;;12.88;10.30;;;36.70;46.90;;;;;;4916962;29;20020;-76
2021/07/12 08:35:46;;;;;;;10.82;9.57;;;36.20;47.60;;;;;;4917085;29;20431;-75
2021/07/12 08:38:12;;;;;;;14.35;10.95;;;35.90;48.50;;;;;;4917130;29;20032;-77
2021/07/12 08:40:37;;;;;;;12.55;10.93;;;35.80;49.30;;;;;;4916809;29;20502;-79
2021/07/12 08:43:03;;;;;;;15.57;11.52;;;36.00;49.50;;;;;;4916967;29;20104;-77
2021/07/12 08:45:29;;;;;;;12.60;11.50;;;35.80;49.70;;;;;;4916540;29;20036;-77
2021/07/12 08:47:55;;;;;;;13.30;11.05;;;35.40;50.20;;;;;;4916673;29;20024;-79
2021/07/12 08:50:23;;;;;;;13.30;11.32;;;35.10;51.00;;;;;;4916392;29;20035;-74
2021/07/12 08:52:50;;;;;;;13.65;11.38;;;35.00;51.60;;;;;;4916464;29;20032;-74
2021/07/12 08:55:17;;;;;;;18.73;10.95;;;35.10;51.40;;;;;;4917371;29;20130;-75
2021/07/12 08:58:07;;;;;;;11.73;10.73;;;35.00;51.10;;;;;;4916562;29;20032;-77
2021/07/12 09:00:45;;;;;;;13.63;10.38;;;34.90;51.30;;;;;;4899697;29;20028;-75
2021/07/12 09:03:35;;;;;;;11.85;10.63;;;35.00;51.20;;;;;;4916551;29;20031;-76
2021/07/12 09:06:08;;;;;;;13.10;11.70;;;35.20;51.50;;;;;;4911548;29;20040;-76
2021/07/12 09:08:40;;;;;;;15.77;12.57;;;35.50;51.10;;;;;;4915840;29;20152;-76
2021/07/12 09:11:15;;;;;;;14.25;11.18;;;35.50;50.70;;;;;;4915962;29;20024;-76
2021/07/12 09:13:46;;;;;;;12.65;10.88;;;35.40;51.20;;;;;;4898912;29;20025;-75
2021/07/12 09:16:35;;;;;;;14.80;11.85;;;35.40;51.40;;;;;;4916159;29;20386;-75
2021/07/12 09:19:16;;;;;;;16.58;11.60;;;35.40;51.90;;;;;;4915909;29;20526;-76
2021/07/12 09:22:06;;;;;;;15.15;11.98;;;35.80;51.70;;;;;;4915955;29;20055;-76
2021/07/12 09:24:36;;;;;;;12.90;11.27;;;35.90;51.30;;;;;;4916112;29;20039;-75
2021/07/12 09:27:08;;;;;;;13.53;12.17;;;36.10;51.00;;;;;;4916088;29;20364;-75
2021/07/12 09:29:38;;;;;;;16.20;11.68;;;36.30;50.50;;;;;;4915777;29;20038;-75
2021/07/12 09:32:10;;;;;;;16.20;12.18;;;36.00;49.80;;;;;;4916027;29;20442;-75
2021/07/12 09:34:37;;;;;;;12.60;11.35;;;35.60;50.50;;;;;;4915302;29;20036;-76
2021/07/12 09:37:04;;;;;;;14.20;12.02;;;35.40;51.40;;;;;;4915612;29;20453;-74
2021/07/12 09:39:41;;;;;;;13.57;12.18;;;35.40;51.60;;;;;;4914864;29;20032;-75
2021/07/12 09:42:32;;;;;;;14.85;13.00;;;35.40;51.50;;;;;;4898383;29;20043;-74
2021/07/12 09:45:08;;;;;;;15.77;12.03;;;35.50;51.50;;;;;;4915358;29;20170;-76
2021/07/12 09:47:38;;;;;;;19.23;11.98;;;35.70;51.60;;;;;;4915532;29;20064;-76
2021/07/12 09:50:24;;;;;;;13.13;11.80;;;35.90;51.40;;;;;;4915352;29;20039;-75
2021/07/12 09:53:09;;;;;;;20.75;12.38;;;36.00;50.80;;;;;;4915265;29;20075;-74
2021/07/12 09:55:41;;;;;;;14.48;12.98;;;35.70;50.40;;;;;;4915349;29;20052;-75
2021/07/12 09:58:08;;;;;;;14.63;13.23;;;35.50;50.70;;;;;;4915268;29;20039;-75
2021/07/12 10:00:34;;;;;;;13.20;11.80;;;35.30;51.20;;;;;;4915094;29;20031;-77
2021/07/12 10:03:01;;;;;;;15.90;13.13;;;35.20;51.10;;;;;;4915239;29;20048;-75
2021/07/12 10:05:28;;;;;;;16.25;12.50;;;34.80;51.50;;;;;;4915172;29;20036;-76
2021/07/12 10:07:54;;;;;;;15.27;12.30;;;34.60;52.80;;;;;;4898074;29;20032;-76
2021/07/12 10:10:20;;;;;;;14.05;12.60;;;34.70;52.40;;;;;;4915500;29;20039;-75
2021/07/12 10:12:46;;;;;;;15.15;13.55;;;34.80;52.30;;;;;;4915249;29;20035;-76
2021/07/12 10:15:15;;;;;;;16.25;12.38;;;34.90;52.20;;;;;;4915270;29;20036;-75
2021/07/12 10:17:46;;;;;;;13.48;12.10;;;35.00;52.20;;;;;;4915149;29;20487;-76
2021/07/12 10:20:13;;;;;;;15.05;11.00;;;35.00;51.70;;;;;;4897850;29;20119;-77
2021/07/12 10:22:40;;;;;;;12.18;10.52;;;34.80;51.00;;;;;;4914954;29;20099;-76
2021/07/12 10:25:17;;;;;;;11.55;10.50;;;34.50;50.70;;;;;;4914641;29;20024;-74
2021/07/12 10:28:06;;;;;;;11.90;9.82;;;34.40;51.00;;;;;;4914795;29;20099;-74
2021/07/12 10:30:36;;;;;;;14.43;9.93;;;34.30;51.20;;;;;;4915118;29;20036;-75
2021/07/12 10:33:05;;;;;;;14.20;10.10;;;34.40;51.20;;;;;;4929276;29;20039;-74
2021/07/12 10:35:47;;;;;;;10.95;9.82;;;34.50;51.10;;;;;;4897985;29;20369;-75
2021/07/12 10:38:37;;;;;;;11.30;9.05;;;34.60;50.80;;;;;;4914953;29;20348;-73
2021/07/12 10:41:16;;;;;;;12.57;10.18;;;34.70;50.60;;;;;;4903841;29;20040;-73
2021/07/12 10:43:52;;;;;;;11.13;9.00;;;34.80;50.30;;;;;;4897848;29;20099;-76
2021/07/12 10:46:24;;;;;;;10.15;9.13;;;34.80;50.00;;;;;;4915256;29;20352;-74
2021/07/12 10:49:08;;;;;;;11.70;9.27;;;34.80;50.10;;;;;;4915467;29;20039;-74
2021/07/12 10:51:44;;;;;;;9.95;8.90;;;34.80;49.80;;;;;;4918330;29;20055;-75
2021/07/12 10:54:14;;;;;;;11.93;8.70;;;34.80;49.70;;;;;;4918921;29;20071;-74
2021/07/12 10:56:50;;;;;;;9.45;8.55;;;34.90;49.80;;;;;;4919155;29;20032;-75
2021/07/12 10:59:26;;;;;;;9.55;8.65;;;34.90;49.60;;;;;;4901965;29;20471;-73
2021/07/12 11:01:52;;;;;;;10.38;8.95;;;34.90;49.30;;;;;;4918560;29;20028;-74
2021/07/12 11:04:57;;;;;;;14.43;9.18;;;35.00;49.20;;;;;;4918762;29;20355;-74
2021/07/12 11:07:45;;;;;;;10.38;9.30;;;35.00;49.20;;;;;;4915701;29;20537;-75
2021/07/12 11:10:31;;;;;;;10.35;9.32;;;34.90;48.90;;;;;;4920451;29;20024;-78
2021/07/12 11:13:03;;;;;;;12.45;11.15;;;34.90;49.20;;;;;;4919174;29;20083;-78
2021/07/12 11:15:34;;;;;;;10.82;8.90;;;34.80;49.30;;;;;;4918387;29;20032;-77
2021/07/12 11:18:08;;;;;;;15.55;9.02;;;34.80;49.50;;;;;;4918217;29;20036;-77
2021/07/12 11:21:03;;;;;;;10.02;9.02;;;34.60;49.70;;;;;;4926974;29;20144;-79
2021/07/12 11:23:43;;;;;;;10.73;9.60;;;34.50;49.50;;;;;;4937296;29;20102;-77
2021/07/12 11:26:23;;;;;;;13.23;9.50;;;34.30;49.60;;;;;;4937607;29;20024;-77
2021/07/12 11:28:51;;;;;;;13.55;9.32;;;34.30;50.00;;;;;;4937226;29;20674;-77
2021/07/12 11:31:55;;;;;;;11.20;9.43;;;34.20;50.20;;;;;;4937141;29;20034;-77
2021/07/12 11:34:32;;;;;;;9.32;8.00;;;34.30;50.40;;;;;;4923349;29;20032;-78
2021/07/12 11:37:09;;;;;;;10.10;9.05;;;34.40;50.30;;;;;;4937119;29;20374;-77
2021/07/12 11:39:40;;;;;;;12.48;8.75;;;34.30;50.00;;;;;;4919720;29;20028;-76
2021/07/12 11:42:24;;;;;;;;;;;34.00;50.10;;;;;;4937446;29;20388;-77
2021/07/12 11:44:52;;;;;;;13.07;9.07;;;33.90;50.40;;;;;;4937071;29;19913;-80
2021/07/12 11:47:27;;;;;;;14.02;8.82;;;34.10;50.70;;;;;;4919919;29;20123;-77
2021/07/12 11:49:56;;;;;;;9.80;8.88;;;34.20;50.80;;;;;;4936980;29;20047;-78
2021/07/12 11:52:22;;;;;;;22.80;9.25;;;34.40;51.00;;;;;;4919779;29;20505;-81
2021/07/12 11:54:55;;;;;;;12.07;8.82;;;34.60;50.80;;;;;;4919604;29;20414;-79
2021/07/12 11:57:21;;;;;;;11.65;8.60;;;34.90;50.30;;;;;;4936773;29;20438;-78
2021/07/12 11:59:47;;;;;;;9.57;8.50;;;35.00;49.70;;;;;;4919689;29;20067;-78
2021/07/12 12:02:17;;;;;;;13.50;9.07;;;35.20;49.30;;;;;;4936823;29;20032;-79
2021/07/12 12:04:44;;;;;;;8.55;7.75;;;35.10;48.80;;;;;;4936767;29;20027;-80
2021/07/12 12:07:29;;;;;;;9.20;8.30;;;35.10;48.90;;;;;;4936565;29;20031;-79
2021/07/12 12:10:09;;;;;;;13.27;8.10;;;35.10;48.70;;;;;;4936693;29;20024;-77
2021/07/12 12:12:40;;;;;;;9.17;8.03;;;34.80;49.00;;;;;;4936495;29;20019;-77
2021/07/12 12:15:06;;;;;;;12.65;8.25;;;34.70;49.40;;;;;;4936703;29;20287;-79
2021/07/12 12:17:33;;;;;;;10.48;8.38;;;34.90;49.70;;;;;;4936513;29;20087;-80
2021/07/12 12:20:13;;;;;;;11.57;8.35;;;35.00;49.70;;;;;;4936630;29;20031;-79
2021/07/12 12:22:54;;;;;;;9.98;7.88;;;35.00;49.70;;;;;;4936361;29;20020;-78
2021/07/12 12:25:20;;;;;;;11.35;8.18;;;35.00;50.00;;;;;;4936208;29;20107;-78
2021/07/12 12:27:46;;;;;;;9.48;8.50;;;35.00;49.70;;;;;;4919233;29;20036;-78
2021/07/12 12:30:13;;;;;;;9.07;8.18;;;34.90;49.90;;;;;;4936398;29;20032;-77
2021/07/12 12:32:39;;;;;;;12.10;8.70;;;34.90;50.00;;;;;;4936500;29;20032;-78
2021/07/12 12:35:06;;;;;;;10.77;8.90;;;34.70;50.30;;;;;;4918823;29;20024;-78
2021/07/12 12:37:41;;;;;;;13.20;9.75;;;34.40;51.30;;;;;;4936390;29;20028;-78
2021/07/12 12:40:24;;;;;;;14.10;9.80;;;34.30;52.30;;;;;;4936186;29;20028;-79
2021/07/12 12:42:53;;;;;;;14.02;9.48;;;34.00;53.80;;;;;;4935989;29;20024;-77
2021/07/12 12:45:27;;;;;;;45.78;12.52;;;33.80;55.00;;;;;;4936312;29;20107;-76